Aérodrome :
LOGIN :

S'inscrire | Disclaimer

   EN    FR    IT 

 










Légende :    VFR   VFR Marginal   IFR   IFR Intensif   IFR Très Intensif
Visi : 
Plafond : 
>= 8 km
>= 3000ft
5 à 8 km
1000 à 3000 ft
1500m à 5 km
500 à 1000 ft
800 à 1500m
200 à 500 ft
< 800m
< 200 ft
Symboles :   Orages  Brouillard  Fortes neiges  Fortes précipitations  Vent > 20 kt
SIGMETs :   Divers  Orages  Givrage  Turbulence  Onde Orograph.  Cendres Volcan.






- Altitude de l'aérodrome : -15 ft
- Code IATA : RTM


EHRD - Rotterdam Zestienhoven

DERNIER METAR :
  • 251855Z AUTO 19009KT 9999 OVC016 09/07 Q1016 NOSIG

METARs EXPIRÉS :
  • 251825Z AUTO 20008KT 180V250 9999 SCT013 OVC015 09/07 Q1016 TEMPO SCT015
  • 251755Z AUTO 21008KT 180V250 9999 BKN012 OVC014 09/07 Q1016 TEMPO SCT015
  • 251725Z AUTO 21008KT 180V240 9999 BKN014 OVC016 09/07 Q1016 TEMPO FEW015
  • 251655Z AUTO 20009KT 160V240 9999 OVC016 09/07 Q1015 TEMPO BKN014
  • 251625Z AUTO 18010KT 9999 NSC 08/06 Q1015 TEMPO BKN014

TAF TAF EHRD
Valide du 25 à 18h jusqu'au 27 à 00h UTC


251718Z 2518/2624 20008KT 9999 FEW017
PROB40
TEMPO 2518/2524 7000 FEW008 BKN012
BECMG 2600/2603 3000 BR -RADZ BKN006
PROB40
TEMPO 2603/2624 1400 DZ SCT002 BKN003
BECMG 2605/2608 VRB03KT
PROB30 2612/2624 5000 BKN012



MET'MAP, la Météo Aéronautique d'un coup d'oeil ! - Copyright ORBIFLY Décembre 2007 - Disclaimer

ORBIFLY MET'MAP TEAM :

Programmation & Développement : Alexandra Zaïnal
Sur une idée originale de : Baudouin d'Aumeries
Assistance à la programmation : Marc-Olivier Méhu
Soutien technique & logistique : Manuel Goepfert

Contact : metmap@orbifly.com




SOURCES & CREDITS :

   NOAA